This is the latest recevied weather packets stored in our database for station/object YM2KRB-11. If no packets are shown the sender has not sent any weather packets the latest 10 day(s).
| Time | Temp. | Humidity | Pressure | Rain* | Wind** | Luminosity | Snow |
|---|---|---|---|---|---|---|---|
| 1777969439 | 18.89° C | 46% | 940.2 hPa | - | - | - | - |
| 1777968238 | 16.67° C | 50% | 940.2 hPa | - | - | - | - |
| 1777967037 | 17.22° C | 48% | 940.2 hPa | - | - | - | - |
| 1777965836 | 16.11° C | 51% | 940.2 hPa | - | - | - | - |
| 1777964635 | 16.67° C | 48% | 940.1 hPa | - | - | - | - |
| 1777963435 | 17.22° C | 47% | 940.1 hPa | - | - | - | - |
| 1777962234 | 17.22° C | 45% | 940 hPa | - | - | - | - |
| 1777961033 | 15.56° C | 49% | 940 hPa | - | - | - | - |
| 1777959832 | 15° C | 50% | 940 hPa | - | - | - | - |
| 1777958631 | 13.89° C | 52% | 939.7 hPa | - | - | - | - |
| 1777957431 | 14.44° C | 52% | 939.7 hPa | - | - | - | - |
| 1777956230 | 12.78° C | 56% | 939.6 hPa | - | - | - | - |
| 1777955029 | 12.78° C | 56% | 939.4 hPa | - | - | - | - |
| 1777953828 | 12.78° C | 56% | 939.4 hPa | - | - | - | - |
| 1777943021 | 9.44° C | 64% | 938.4 hPa | - | - | - | - |
| 1777932214 | 9.44° C | 66% | 938.2 hPa | - | - | - | - |
| 1777931013 | 9.44° C | 65% | 938.2 hPa | - | - | - | - |
| 1777929812 | 9.44° C | 64% | 938.2 hPa | - | - | - | - |
| 1777926210 | 9.44° C | 63% | 938.2 hPa | - | - | - | - |
| 1777925009 | 9.44° C | 61% | 938.1 hPa | - | - | - | - |
| 1777922608 | 9.44° C | 60% | 937.9 hPa | - | - | - | - |
| 1777921407 | 10° C | 57% | 937.9 hPa | - | - | - | - |
| 1777919005 | 11.11° C | 56% | 937.5 hPa | - | - | - | - |
| 1777917804 | 10° C | 57% | 937.3 hPa | - | - | - | - |
| 1777915402 | 10.56° C | 56% | 936.7 hPa | - | - | - | - |
* Rain since midnight (hover to see other rain measurements)
** Current wind speed in m/s (hover to see current wind gust speed)